createdAt,value
2022-11-17T00:00:31.794Z,9.430293
2022-11-17T00:01:31.618Z,9.430296
2022-11-17T00:02:31.695Z,9.430303
2022-11-17T00:03:31.701Z,9.430292
2022-11-17T00:04:31.589Z,9.430285
2022-11-17T00:05:31.558Z,9.430262
2022-11-17T00:06:31.553Z,9.430260
2022-11-17T00:07:31.645Z,9.430345
2022-11-17T00:08:31.563Z,9.430366
2022-11-17T00:09:31.542Z,9.430354
2022-11-17T00:10:31.478Z,9.430332
2022-11-17T00:11:31.525Z,9.430315
2022-11-17T00:12:33.067Z,9.430342
2022-11-17T00:13:32.876Z,9.430341
2022-11-17T00:14:31.523Z,9.430334
2022-11-17T00:15:31.421Z,9.430326
2022-11-17T00:16:31.450Z,9.430340
2022-11-17T00:17:31.441Z,9.430328
2022-11-17T00:18:31.590Z,9.430322
2022-11-17T00:19:31.379Z,9.430368
2022-11-17T00:20:31.407Z,9.430366
2022-11-17T00:21:31.398Z,9.430332
2022-11-17T00:22:31.370Z,9.430308
2022-11-17T00:23:31.400Z,9.430317
2022-11-17T00:24:31.363Z,9.430330
2022-11-17T00:25:31.377Z,9.430289
2022-11-17T00:26:31.392Z,9.430314
2022-11-17T00:27:31.293Z,9.430343
2022-11-17T00:28:34.144Z,9.430340
2022-11-17T00:29:31.288Z,9.430314
2022-11-17T00:30:31.268Z,9.430290
2022-11-17T00:31:31.288Z,9.430308
2022-11-17T00:32:31.272Z,9.430280
2022-11-17T00:33:31.300Z,9.430321
2022-11-17T00:34:31.260Z,9.430329
2022-11-17T00:35:31.208Z,9.430328
2022-11-17T00:36:31.266Z,9.430355
2022-11-17T00:37:31.260Z,9.430335
2022-11-17T00:38:31.224Z,9.430307
2022-11-17T00:39:31.180Z,9.430266
2022-11-17T00:40:31.223Z,9.430340
2022-11-17T00:41:31.171Z,9.430339
2022-11-17T00:42:31.200Z,9.430371
2022-11-17T00:43:31.171Z,9.430371
2022-11-17T00:44:31.199Z,9.430353
2022-11-17T00:45:31.798Z,9.430323
2022-11-17T00:46:31.131Z,9.430299
2022-11-17T00:47:31.085Z,9.430323
2022-11-17T00:48:31.041Z,9.430356
2022-11-17T00:49:31.076Z,9.430354
2022-11-17T00:50:31.020Z,9.430351
2022-11-17T00:51:31.077Z,9.430347
2022-11-17T00:52:31.093Z,9.430382
2022-11-17T00:53:31.195Z,9.430344
2022-11-17T00:54:31.010Z,9.430327
2022-11-17T00:55:31.073Z,9.430364
2022-11-17T00:56:32.030Z,9.430351
2022-11-17T00:57:31.018Z,9.430327
2022-11-17T00:58:31.057Z,9.430427
2022-11-17T00:59:31.100Z,9.430354
2022-11-17T01:00:30.990Z,9.430354
2022-11-17T01:01:30.970Z,9.430338
2022-11-17T01:02:31.085Z,9.430400
2022-11-17T01:03:30.959Z,9.430377
2022-11-17T01:04:30.945Z,9.430343
2022-11-17T01:05:33.122Z,9.430365
2022-11-17T01:06:32.525Z,9.430449
2022-11-17T01:07:31.052Z,9.430420
2022-11-17T01:08:30.866Z,9.430373
2022-11-17T01:09:30.918Z,9.430369
2022-11-17T01:10:30.888Z,9.430382
2022-11-17T01:11:30.847Z,9.430363
2022-11-17T01:12:31.100Z,9.430331
2022-11-17T01:13:31.018Z,9.430341
2022-11-17T01:14:30.822Z,9.430315
2022-11-17T01:15:30.934Z,9.430378
2022-11-17T01:16:30.902Z,9.430355
2022-11-17T01:17:30.769Z,9.430409
2022-11-17T01:18:31.307Z,9.430407
2022-11-17T01:19:30.775Z,9.430372
2022-11-17T01:20:30.742Z,9.430351
2022-11-17T01:21:30.900Z,9.430367
2022-11-17T01:22:31.583Z,9.430413
2022-11-17T01:23:30.662Z,9.430378
2022-11-17T01:24:31.362Z,9.430377
2022-11-17T01:25:31.900Z,9.430366
2022-11-17T01:26:30.667Z,9.430343
2022-11-17T01:27:30.663Z,9.430321
2022-11-17T01:28:31.091Z,9.430331
2022-11-17T01:29:30.674Z,9.430410
2022-11-17T01:30:30.719Z,9.430359
2022-11-17T01:31:30.610Z,9.430374
2022-11-17T01:32:30.619Z,9.430398
2022-11-17T01:33:30.719Z,9.430416
2022-11-17T01:34:30.819Z,9.430414
2022-11-17T01:35:30.631Z,9.430387
2022-11-17T01:36:30.731Z,9.430409
2022-11-17T01:37:30.634Z,9.430401
2022-11-17T01:38:30.923Z,9.430429
2022-11-17T01:39:30.607Z,9.430393
2022-11-17T01:40:30.659Z,9.430433
2022-11-17T01:41:30.648Z,9.430404
2022-11-17T01:42:30.481Z,9.430355
2022-11-17T01:43:30.531Z,9.430361
2022-11-17T01:44:30.883Z,9.430365
2022-11-17T01:45:30.532Z,9.430397
2022-11-17T01:46:30.519Z,9.430387
2022-11-17T01:47:30.487Z,9.430333
2022-11-17T01:48:30.824Z,9.430346
2022-11-17T01:49:30.556Z,9.430373
2022-11-17T01:50:30.519Z,9.430372
2022-11-17T01:51:31.563Z,9.430369
2022-11-17T01:52:30.511Z,9.430441
2022-11-17T01:53:30.819Z,9.430410
2022-11-17T01:54:30.365Z,9.430402
2022-11-17T01:55:30.655Z,9.430427
2022-11-17T01:56:30.345Z,9.430334
2022-11-17T01:57:30.384Z,9.430391
2022-11-17T01:58:30.277Z,9.430358
2022-11-17T01:59:30.296Z,9.430395
2022-11-17T02:00:30.288Z,9.430390
2022-11-17T02:01:30.589Z,9.430405
2022-11-17T02:02:30.315Z,9.430387
2022-11-17T02:03:30.205Z,9.430366
2022-11-17T02:04:31.288Z,9.430394
2022-11-17T02:05:30.204Z,9.430401
2022-11-17T02:06:30.268Z,9.430420
2022-11-17T02:07:30.308Z,9.430302
2022-11-17T02:08:30.406Z,9.430394
2022-11-17T02:09:30.156Z,9.430388
2022-11-17T02:10:30.132Z,9.430406
2022-11-17T02:11:30.156Z,9.430374
2022-11-17T02:12:30.171Z,9.430364
2022-11-17T02:13:30.176Z,9.430365
2022-11-17T02:14:31.121Z,9.430354
2022-11-17T02:15:30.086Z,9.430346
2022-11-17T02:16:30.108Z,9.430334
2022-11-17T02:17:30.085Z,9.430358
2022-11-17T02:18:30.076Z,9.430346
2022-11-17T02:19:30.053Z,9.430346
2022-11-17T02:20:30.057Z,9.430323
2022-11-17T02:21:30.076Z,9.430380
2022-11-17T02:22:29.994Z,9.430376
2022-11-17T02:23:30.032Z,9.430333
2022-11-17T02:24:29.995Z,9.430309
2022-11-17T02:25:29.944Z,9.430342
2022-11-17T02:26:30.077Z,9.430372
2022-11-17T02:27:29.976Z,9.430333
2022-11-17T02:28:29.961Z,9.430341
2022-11-17T02:29:29.941Z,9.430337
2022-11-17T02:30:29.966Z,9.430378
2022-11-17T02:31:29.960Z,9.430397
2022-11-17T02:32:29.896Z,9.430337
2022-11-17T02:33:29.855Z,9.430362
2022-11-17T02:34:29.860Z,9.430389
2022-11-17T02:35:29.909Z,9.430385
2022-11-17T02:36:29.849Z,9.430358
2022-11-17T02:37:30.790Z,9.430341
2022-11-17T02:38:29.918Z,9.430371
2022-11-17T02:39:29.920Z,9.430363
2022-11-17T02:40:29.972Z,9.430348
2022-11-17T02:41:29.981Z,9.430341
2022-11-17T02:42:30.004Z,9.430288
2022-11-17T02:43:29.910Z,9.430419
2022-11-17T02:44:29.755Z,9.430376
2022-11-17T02:45:30.034Z,9.430383
2022-11-17T02:46:31.101Z,9.430364
2022-11-17T02:47:29.742Z,9.430359
2022-11-17T02:48:29.750Z,9.430324
2022-11-17T02:49:29.744Z,9.430341
2022-11-17T02:50:30.277Z,9.430374
2022-11-17T02:51:29.776Z,9.430401
2022-11-17T02:52:29.753Z,9.430401
2022-11-17T02:53:29.841Z,9.430409
2022-11-17T02:54:30.157Z,9.430378
2022-11-17T02:55:29.661Z,9.430368
2022-11-17T02:56:29.685Z,9.430317
2022-11-17T02:57:43.008Z,9.430352
2022-11-17T02:58:29.769Z,9.430413
2022-11-17T02:59:29.700Z,9.430387
2022-11-17T03:00:34.848Z,9.430388
2022-11-17T03:01:29.872Z,9.430370
2022-11-17T03:02:29.913Z,9.430359
2022-11-17T03:03:29.622Z,9.430326
2022-11-17T03:04:30.341Z,9.430332
2022-11-17T03:05:31.124Z,9.430351
2022-11-17T03:06:29.562Z,9.430444
2022-11-17T03:07:30.459Z,9.430326
2022-11-17T03:08:32.953Z,9.430352
2022-11-17T03:09:31.913Z,9.430370
2022-11-17T03:10:31.914Z,9.430366
2022-11-17T03:11:29.565Z,9.430382
2022-11-17T03:12:29.949Z,9.430372
2022-11-17T03:14:51.153Z,9.430367
2022-11-17T03:14:52.906Z,9.430367
2022-11-17T03:15:52.781Z,9.430356
2022-11-17T03:16:52.789Z,9.430327
2022-11-17T03:17:52.858Z,9.430427
2022-11-17T03:18:52.705Z,9.430349
2022-11-17T03:19:53.075Z,9.430344
2022-11-17T03:20:52.868Z,9.430338
2022-11-17T03:23:42.503Z,9.430387
2022-11-17T03:23:47.301Z,9.430387
2022-11-17T03:25:10.442Z,9.430369
2022-11-17T03:25:47.237Z,9.430342
2022-11-17T03:29:40.389Z,9.430356
2022-11-17T03:29:53.358Z,9.430356
2022-11-17T03:30:48.154Z,9.430367
2022-11-17T03:31:47.115Z,9.430382
2022-11-17T03:32:46.927Z,9.430391
2022-11-17T03:33:48.839Z,9.430401
2022-11-17T03:34:46.830Z,9.430385
2022-11-17T03:35:50.711Z,9.430305
2022-11-17T03:36:49.291Z,9.430344
2022-11-17T03:37:50.090Z,9.430373
2022-11-17T03:38:48.063Z,9.430365
2022-11-17T03:39:47.531Z,9.430372
2022-11-17T03:40:46.830Z,9.430421
2022-11-17T03:41:47.597Z,9.430426
2022-11-17T03:42:48.330Z,9.430441
2022-11-17T03:43:47.003Z,9.430430
2022-11-17T03:44:51.172Z,9.430429
2022-11-17T03:45:47.074Z,9.430401
2022-11-17T03:46:47.547Z,9.430360
2022-11-17T03:47:47.787Z,9.430369
2022-11-17T03:48:47.104Z,9.430359
2022-11-17T03:50:04.619Z,9.430317
2022-11-17T03:50:48.376Z,9.430362
2022-11-17T03:51:46.739Z,9.430331
2022-11-17T03:52:47.383Z,9.430306
2022-11-17T03:53:46.799Z,9.430318
2022-11-17T03:54:46.760Z,9.430339
2022-11-17T03:55:47.489Z,9.430309
2022-11-17T03:56:46.763Z,9.430346
2022-11-17T03:57:46.558Z,9.430369
2022-11-17T03:58:46.572Z,9.430353
2022-11-17T03:59:48.004Z,9.430333
2022-11-17T04:00:47.310Z,9.430316
2022-11-17T04:01:46.540Z,9.430332
2022-11-17T04:02:47.115Z,9.430337
2022-11-17T04:03:46.768Z,9.430361
2022-11-17T04:04:46.592Z,9.430308
2022-11-17T04:05:47.657Z,9.430319
2022-11-17T04:06:46.559Z,9.430304
2022-11-17T04:07:46.775Z,9.430346
2022-11-17T04:08:46.427Z,9.430346
2022-11-17T04:09:52.632Z,9.430325
2022-11-17T04:10:46.426Z,9.430346
2022-11-17T04:11:53.136Z,9.430369
2022-11-17T04:12:46.533Z,9.430387
2022-11-17T04:13:47.703Z,9.430391
2022-11-17T04:14:46.656Z,9.430328
2022-11-17T04:15:46.624Z,9.430348
2022-11-17T04:16:47.191Z,9.430322
2022-11-17T04:17:46.423Z,9.430321
2022-11-17T04:18:46.703Z,9.430305
2022-11-17T04:19:46.564Z,9.430347
2022-11-17T04:20:46.429Z,9.430346
2022-11-17T04:21:46.347Z,9.430351
2022-11-17T04:22:49.161Z,9.430324
2022-11-17T04:24:01.301Z,9.430349
2022-11-17T04:24:46.661Z,9.430364
2022-11-17T04:25:46.592Z,9.430376
2022-11-17T04:26:47.344Z,9.430415
2022-11-17T04:27:46.558Z,9.430380
2022-11-17T04:28:53.116Z,9.430337
2022-11-17T04:29:46.525Z,9.430345
2022-11-17T04:30:48.466Z,9.430387
2022-11-17T04:32:27.441Z,9.430384
2022-11-17T04:34:11.457Z,9.430321
2022-11-17T04:34:15.154Z,9.430321
2022-11-17T04:35:13.269Z,9.430330
2022-11-17T04:36:13.382Z,9.430308
2022-11-17T04:38:35.802Z,9.430321
2022-11-17T04:38:43.934Z,9.430321
2022-11-17T04:41:50.307Z,9.430331
2022-11-17T04:41:56.421Z,9.430331
2022-11-17T04:43:06.794Z,9.430317
2022-11-17T04:43:56.241Z,9.430316
2022-11-17T04:45:08.115Z,9.430324
2022-11-17T04:45:57.403Z,9.430295
2022-11-17T04:47:12.708Z,9.430308
2022-11-17T04:48:07.406Z,9.430307
2022-11-17T04:49:10.196Z,9.430323
2022-11-17T04:50:07.444Z,9.430313
2022-11-17T04:50:55.941Z,9.430309
2022-11-17T04:52:07.424Z,9.430333
2022-11-17T04:52:55.857Z,9.430317
2022-11-17T04:54:00.687Z,9.430328
2022-11-17T04:54:55.417Z,9.430336
2022-11-17T04:55:55.572Z,9.430342
2022-11-17T04:56:54.816Z,9.430347
2022-11-17T04:57:56.992Z,9.430314
2022-11-17T04:58:55.533Z,9.430363
2022-11-17T04:59:55.325Z,9.430349
2022-11-17T05:00:54.804Z,9.430367
2022-11-17T05:01:54.768Z,9.430366
2022-11-17T05:02:55.152Z,9.430307
2022-11-17T05:03:55.516Z,9.430352
2022-11-17T05:06:19.042Z,9.430326
2022-11-17T05:06:22.272Z,9.430326
2022-11-17T05:07:20.933Z,9.430338
2022-11-17T05:08:20.933Z,9.430329
2022-11-17T05:09:20.824Z,9.430309
2022-11-17T05:10:20.706Z,9.430345
2022-11-17T05:11:21.447Z,9.430306
2022-11-17T05:13:53.427Z,9.430354
2022-11-17T05:15:35.360Z,9.430354
2022-11-17T05:16:35.023Z,9.430319
2022-11-17T05:17:34.131Z,9.430308
2022-11-17T05:18:34.024Z,9.430271
2022-11-17T05:19:34.059Z,9.430361
2022-11-17T05:20:34.148Z,9.430377
2022-11-17T05:21:34.121Z,9.430398
2022-11-17T05:22:34.046Z,9.430367
2022-11-17T05:23:34.310Z,9.430404
2022-11-17T05:24:33.947Z,9.430384
2022-11-17T05:25:34.132Z,9.430340
2022-11-17T05:26:34.789Z,9.430347
2022-11-17T05:27:34.248Z,9.430368
2022-11-17T05:28:33.937Z,9.430367
2022-11-17T05:29:34.708Z,9.430311
2022-11-17T05:30:34.576Z,9.430295
2022-11-17T05:31:33.913Z,9.430321
2022-11-17T05:32:34.019Z,9.430336
2022-11-17T05:33:37.739Z,9.430320
2022-11-17T05:34:33.841Z,9.430329
2022-11-17T05:35:33.845Z,9.430335
2022-11-17T05:36:33.823Z,9.430338
2022-11-17T05:37:33.873Z,9.430339
2022-11-17T05:38:33.820Z,9.430289
2022-11-17T05:39:33.833Z,9.430318
2022-11-17T05:40:33.768Z,9.430285
2022-11-17T05:41:33.863Z,9.430301
2022-11-17T05:42:33.757Z,9.430370
2022-11-17T05:43:34.117Z,9.430380
2022-11-17T05:44:33.757Z,9.430377
2022-11-17T05:45:33.760Z,9.430369
2022-11-17T05:46:33.729Z,9.430331
2022-11-17T05:47:33.712Z,9.430367
2022-11-17T05:48:33.723Z,9.430402
2022-11-17T05:49:33.633Z,9.430403
2022-11-17T05:50:33.632Z,9.430401
2022-11-17T05:51:33.640Z,9.430368
2022-11-17T05:52:33.644Z,9.430351
2022-11-17T05:53:34.131Z,9.430360
2022-11-17T05:54:33.832Z,9.430396
2022-11-17T05:55:33.588Z,9.430397
2022-11-17T05:56:33.625Z,9.430405
2022-11-17T05:57:33.651Z,9.430388
2022-11-17T05:58:33.635Z,9.430333
2022-11-17T05:59:33.548Z,9.430311
2022-11-17T06:01:56.196Z,9.430319
2022-11-17T06:02:02.685Z,9.430319
2022-11-17T06:09:39.445Z,9.430338
2022-11-17T06:09:56.820Z,9.430338
2022-11-17T06:10:41.301Z,9.430350
2022-11-17T06:11:42.813Z,9.430314
2022-11-17T06:14:06.411Z,9.430273
2022-11-17T06:14:08.216Z,9.430273
2022-11-17T06:16:31.776Z,9.430266
2022-11-17T06:16:33.407Z,9.430266
2022-11-17T06:17:35.651Z,9.430346
2022-11-17T06:19:58.191Z,9.430315
2022-11-17T06:19:59.951Z,9.430315
2022-11-17T06:26:04.791Z,9.430287
2022-11-17T06:27:19.413Z,9.430287
2022-11-17T06:27:21.094Z,9.430287
2022-11-17T06:28:21.866Z,9.430347
2022-11-17T06:29:21.619Z,9.430266
2022-11-17T06:30:21.349Z,9.430271
2022-11-17T06:31:21.067Z,9.430326
2022-11-17T06:32:21.541Z,9.430292
2022-11-17T06:33:20.927Z,9.430250
2022-11-17T06:34:28.971Z,9.430305
2022-11-17T06:35:21.534Z,9.430325
2022-11-17T06:36:21.918Z,9.430257
2022-11-17T06:38:27.496Z,9.430291
2022-11-17T06:40:21.134Z,9.430291
2022-11-17T06:40:25.456Z,9.430291
2022-11-17T06:41:24.924Z,9.430307
2022-11-17T06:42:33.666Z,9.430287
2022-11-17T06:43:24.602Z,9.430316
2022-11-17T06:44:24.375Z,9.430246
2022-11-17T06:45:25.521Z,9.430290
2022-11-17T06:46:24.639Z,9.430260
2022-11-17T06:47:25.954Z,9.430306
2022-11-17T06:51:33.245Z,9.430281
2022-11-17T06:52:56.258Z,9.430221
2022-11-17T06:53:16.177Z,9.430316
2022-11-17T06:55:52.369Z,9.430294
2022-11-17T06:57:18.644Z,9.430294
2022-11-17T06:58:42.317Z,9.430294
2022-11-17T06:58:44.080Z,9.430294
2022-11-17T06:59:44.149Z,9.430176
2022-11-17T07:02:17.140Z,9.430243
2022-11-17T07:03:16.867Z,9.430268
2022-11-17T07:04:16.960Z,9.430328
2022-11-17T07:05:16.778Z,9.430280
2022-11-17T07:06:16.589Z,9.430283
2022-11-17T07:07:16.717Z,9.430324
2022-11-17T07:08:16.529Z,9.430346
2022-11-17T07:09:16.578Z,9.430449
2022-11-17T07:10:16.619Z,9.430312
2022-11-17T07:11:16.658Z,9.430259
2022-11-17T07:12:17.542Z,9.430274
2022-11-17T07:13:16.554Z,9.430301
2022-11-17T07:14:16.566Z,9.430273
2022-11-17T07:15:16.607Z,9.430275
2022-11-17T07:16:22.938Z,9.430261
2022-11-17T07:17:18.598Z,9.430350
2022-11-17T07:18:16.434Z,9.430327
2022-11-17T07:19:16.458Z,9.430414
2022-11-17T07:20:16.601Z,9.430383
2022-11-17T07:21:16.395Z,9.430288
2022-11-17T07:22:16.410Z,9.430296
2022-11-17T07:23:16.419Z,9.430341
2022-11-17T07:24:16.297Z,9.430379
2022-11-17T07:25:22.092Z,9.430369
2022-11-17T07:26:18.314Z,9.430406
2022-11-17T07:27:16.340Z,9.430400
2022-11-17T07:28:16.374Z,9.430373
2022-11-17T07:29:16.376Z,9.430314
2022-11-17T07:30:16.425Z,9.430244
2022-11-17T07:31:16.359Z,9.430288
2022-11-17T07:32:16.260Z,9.430275
2022-11-17T07:33:16.857Z,9.430315
2022-11-17T07:34:16.272Z,9.430326
2022-11-17T07:35:16.300Z,9.430303
2022-11-17T07:36:16.272Z,9.430345
2022-11-17T07:37:16.221Z,9.430346
2022-11-17T07:38:16.199Z,9.430367
2022-11-17T07:39:21.277Z,9.430305
2022-11-17T07:40:18.259Z,9.430336
2022-11-17T07:41:16.183Z,9.430366
2022-11-17T07:42:16.222Z,9.430331
2022-11-17T07:43:16.168Z,9.430334
2022-11-17T07:44:16.272Z,9.430399
2022-11-17T07:45:16.287Z,9.430346
2022-11-17T07:46:16.139Z,9.430405
2022-11-17T07:47:16.119Z,9.430496
2022-11-17T07:48:16.172Z,9.430486
2022-11-17T07:49:16.370Z,9.430362
2022-11-17T07:50:16.083Z,9.430315
2022-11-17T07:51:16.062Z,9.430274
2022-11-17T07:52:16.228Z,9.430365
2022-11-17T07:53:16.107Z,9.430324
2022-11-17T07:54:16.134Z,9.430344
2022-11-17T07:55:16.004Z,9.430460
2022-11-17T07:56:16.018Z,9.430415
2022-11-17T07:57:16.063Z,9.430364
2022-11-17T07:58:16.011Z,9.430358
2022-11-17T07:59:21.055Z,9.430397
2022-11-17T08:00:16.979Z,9.430359
2022-11-17T08:01:16.030Z,9.430301
2022-11-17T08:02:15.976Z,9.430387
2022-11-17T08:03:15.980Z,9.430378
2022-11-17T08:04:15.908Z,9.430321
2022-11-17T08:05:15.930Z,9.430339
2022-11-17T08:06:15.940Z,9.430332
2022-11-17T08:07:16.034Z,9.430372
2022-11-17T08:08:16.791Z,9.430362
2022-11-17T08:09:15.955Z,9.430394
2022-11-17T08:10:15.874Z,9.430390
2022-11-17T08:11:15.915Z,9.430380
2022-11-17T08:12:15.890Z,9.430429
2022-11-17T08:13:15.846Z,9.430367
2022-11-17T08:14:15.812Z,9.430383
2022-11-17T08:15:15.795Z,9.430392
2022-11-17T08:16:15.836Z,9.430402
2022-11-17T08:17:15.864Z,9.430374
2022-11-17T08:18:15.718Z,9.430356
2022-11-17T08:19:15.729Z,9.430358
2022-11-17T08:20:15.716Z,9.430363
2022-11-17T08:21:15.777Z,9.430355
2022-11-17T08:22:15.826Z,9.430326
2022-11-17T08:23:15.775Z,9.430324
2022-11-17T08:24:15.717Z,9.430361
2022-11-17T08:25:15.758Z,9.430355
2022-11-17T08:26:15.662Z,9.430340
2022-11-17T08:27:15.705Z,9.430347
2022-11-17T08:28:15.652Z,9.430392
2022-11-17T08:29:15.684Z,9.430406
2022-11-17T08:30:15.613Z,9.430351
2022-11-17T08:31:15.754Z,9.430349
2022-11-17T08:32:15.625Z,9.430390
2022-11-17T08:33:15.678Z,9.430404
2022-11-17T08:34:15.601Z,9.430335
2022-11-17T08:35:15.543Z,9.430342
2022-11-17T08:36:16.590Z,9.430365
2022-11-17T08:37:15.576Z,9.430378
2022-11-17T08:38:15.674Z,9.430387
2022-11-17T08:39:16.037Z,9.430384
2022-11-17T08:40:15.485Z,9.430401
2022-11-17T08:41:15.562Z,9.430429
2022-11-17T08:42:15.539Z,9.430400
2022-11-17T08:43:15.453Z,9.430372
2022-11-17T08:44:15.552Z,9.430360
2022-11-17T08:45:15.524Z,9.430352
2022-11-17T08:46:15.428Z,9.430350
2022-11-17T08:47:15.462Z,9.430316
2022-11-17T08:48:15.439Z,9.430308
2022-11-17T08:49:15.410Z,9.430346
2022-11-17T08:50:15.420Z,9.430333
2022-11-17T08:51:15.425Z,9.430316
2022-11-17T08:52:15.372Z,9.430323
2022-11-17T08:53:15.393Z,9.430354
2022-11-17T08:54:15.443Z,9.430364
2022-11-17T08:55:15.407Z,9.430376
2022-11-17T08:56:15.468Z,9.430378
2022-11-17T08:57:15.429Z,9.430338
2022-11-17T08:58:15.311Z,9.430348
2022-11-17T08:59:15.413Z,9.430395
2022-11-17T09:00:15.378Z,9.430354
2022-11-17T09:01:15.401Z,9.430368
2022-11-17T09:02:15.308Z,9.430362
2022-11-17T09:03:15.287Z,9.430412
2022-11-17T09:04:15.292Z,9.430430
2022-11-17T09:05:15.288Z,9.430364
2022-11-17T09:06:15.231Z,9.430416
2022-11-17T09:07:15.298Z,9.430341
2022-11-17T09:08:43.887Z,9.430250
2022-11-17T09:09:17.257Z,9.430318
2022-11-17T09:10:15.251Z,9.430315
2022-11-17T09:11:15.176Z,9.430326
2022-11-17T09:12:15.204Z,9.430349
2022-11-17T09:13:18.765Z,9.430337
2022-11-17T09:14:16.203Z,9.430296
2022-11-17T09:15:15.167Z,9.430350
2022-11-17T09:16:15.136Z,9.430330
2022-11-17T09:17:15.056Z,9.430292
2022-11-17T09:18:15.044Z,9.430305
2022-11-17T09:19:15.100Z,9.430324
2022-11-17T09:20:15.124Z,9.430356
2022-11-17T09:21:15.110Z,9.430382
2022-11-17T09:22:15.096Z,9.430350
2022-11-17T09:23:15.038Z,9.430354
2022-11-17T09:24:15.071Z,9.430358
2022-11-17T09:25:15.016Z,9.430380
2022-11-17T09:26:15.014Z,9.430415
2022-11-17T09:27:15.055Z,9.430413
2022-11-17T09:28:14.997Z,9.430407
2022-11-17T09:29:15.072Z,9.430342
2022-11-17T09:30:15.080Z,9.430339
2022-11-17T09:31:15.068Z,9.430387
2022-11-17T09:32:14.989Z,9.430352
2022-11-17T09:33:14.979Z,9.430382
2022-11-17T09:34:14.991Z,9.430346
2022-11-17T09:35:14.916Z,9.430269
2022-11-17T09:36:14.897Z,9.430327
2022-11-17T09:37:14.980Z,9.430334
2022-11-17T09:38:14.856Z,9.430381
2022-11-17T09:39:14.849Z,9.430369
2022-11-17T09:40:14.878Z,9.430344
2022-11-17T09:41:14.805Z,9.430317
2022-11-17T09:42:14.912Z,9.430330
2022-11-17T09:43:14.833Z,9.430347
2022-11-17T09:44:14.794Z,9.430364
2022-11-17T09:45:14.817Z,9.430357
2022-11-17T09:46:14.990Z,9.430341
2022-11-17T09:47:14.801Z,9.430383
2022-11-17T09:48:40.724Z,9.430402
2022-11-17T09:49:16.745Z,9.430368
2022-11-17T09:50:14.753Z,9.430362
2022-11-17T09:51:14.743Z,9.430338
2022-11-17T09:52:14.777Z,9.430368
2022-11-17T09:53:14.827Z,9.430352
2022-11-17T09:54:14.743Z,9.430385
2022-11-17T09:55:14.650Z,9.430372
2022-11-17T09:56:14.753Z,9.430418
2022-11-17T09:57:14.745Z,9.430401
2022-11-17T09:58:14.645Z,9.430392
2022-11-17T09:59:15.207Z,9.430397
2022-11-17T10:00:15.423Z,9.430365
2022-11-17T10:01:14.724Z,9.430396
2022-11-17T10:02:14.647Z,9.430499
2022-11-17T10:03:14.713Z,9.430378
2022-11-17T10:04:14.655Z,9.430429
2022-11-17T10:05:14.706Z,9.430395
2022-11-17T10:06:14.523Z,9.430408
2022-11-17T10:07:14.610Z,9.430346
2022-11-17T10:08:14.566Z,9.430387
2022-11-17T10:09:14.612Z,9.430456
2022-11-17T10:10:14.507Z,9.430445
2022-11-17T10:11:14.527Z,9.430446
2022-11-17T10:12:14.446Z,9.430438
2022-11-17T10:13:14.487Z,9.430440
2022-11-17T10:14:14.435Z,9.430378
2022-11-17T10:15:14.406Z,9.430357
2022-11-17T10:16:14.441Z,9.430408
2022-11-17T10:17:14.515Z,9.430415
2022-11-17T10:18:14.454Z,9.430433
2022-11-17T10:19:14.429Z,9.430357
2022-11-17T10:20:14.514Z,9.430366
2022-11-17T10:21:14.358Z,9.430330
2022-11-17T10:22:14.387Z,9.430377
2022-11-17T10:23:14.557Z,9.430429
2022-11-17T10:24:14.347Z,9.430492
2022-11-17T10:25:14.551Z,9.430464
2022-11-17T10:26:14.468Z,9.430403
2022-11-17T10:27:14.674Z,9.430430
2022-11-17T10:28:14.291Z,9.430379
2022-11-17T10:29:14.420Z,9.430394
2022-11-17T10:30:14.227Z,9.430403
2022-11-17T10:31:14.308Z,9.430399
2022-11-17T10:32:14.324Z,9.430444
2022-11-17T10:33:14.344Z,9.430416
2022-11-17T10:34:14.286Z,9.430394
2022-11-17T10:35:14.231Z,9.430396
2022-11-17T10:36:14.256Z,9.430392
2022-11-17T10:37:14.225Z,9.430389
2022-11-17T10:38:14.190Z,9.430356
2022-11-17T10:39:17.871Z,9.430385
2022-11-17T10:40:19.320Z,9.430367
2022-11-17T10:41:15.192Z,9.430395
2022-11-17T10:42:14.135Z,9.430375
2022-11-17T10:43:14.139Z,9.430372
2022-11-17T10:44:14.135Z,9.430397
2022-11-17T10:45:14.079Z,9.430342
2022-11-17T10:46:14.284Z,9.430299
2022-11-17T10:47:14.113Z,9.430385
2022-11-17T10:48:14.093Z,9.430346
2022-11-17T10:49:14.063Z,9.430321
2022-11-17T10:50:14.171Z,9.430371
2022-11-17T10:51:14.096Z,9.430382
2022-11-17T10:52:14.080Z,9.430374
2022-11-17T10:53:14.019Z,9.430373
2022-11-17T10:54:14.032Z,9.430396
2022-11-17T10:55:13.976Z,9.430411
2022-11-17T10:56:13.964Z,9.430411
2022-11-17T10:57:14.060Z,9.430379
2022-11-17T10:58:13.928Z,9.430421
2022-11-17T10:59:13.957Z,9.430392
2022-11-17T11:00:13.932Z,9.430345
2022-11-17T11:01:14.117Z,9.430359
2022-11-17T11:02:13.887Z,9.430372
2022-11-17T11:03:13.881Z,9.430369
2022-11-17T11:04:14.697Z,9.430371
2022-11-17T11:05:13.864Z,9.430370
2022-11-17T11:06:17.456Z,9.430386
2022-11-17T11:07:14.954Z,9.430379
2022-11-17T11:08:13.905Z,9.430377
2022-11-17T11:09:13.788Z,9.430394
2022-11-17T11:10:13.824Z,9.430352
2022-11-17T11:11:13.789Z,9.430383
2022-11-17T11:12:13.754Z,9.430404
2022-11-17T11:13:13.774Z,9.430387
2022-11-17T11:14:13.751Z,9.430414
2022-11-17T11:15:13.752Z,9.430397
2022-11-17T11:16:13.778Z,9.430387
2022-11-17T11:17:13.728Z,9.430386
2022-11-17T11:18:13.817Z,9.430379
2022-11-17T11:19:13.702Z,9.430410
2022-11-17T11:20:13.735Z,9.430357
2022-11-17T11:21:13.641Z,9.430374
2022-11-17T11:22:18.227Z,9.430386
2022-11-17T11:23:15.656Z,9.430365
2022-11-17T11:24:13.644Z,9.430343
2022-11-17T11:25:13.617Z,9.430387
2022-11-17T11:26:13.639Z,9.430376
2022-11-17T11:27:13.603Z,9.430357
2022-11-17T11:28:13.637Z,9.430386
2022-11-17T11:29:13.721Z,9.430378
2022-11-17T11:30:13.582Z,9.430376
2022-11-17T11:31:13.555Z,9.430408
2022-11-17T11:32:13.606Z,9.430384
2022-11-17T11:33:13.526Z,9.430371
2022-11-17T11:34:13.534Z,9.430377
2022-11-17T11:35:17.322Z,9.430294
2022-11-17T11:36:13.492Z,9.430402
2022-11-17T11:37:13.535Z,9.430393
2022-11-17T11:38:14.475Z,9.430367
2022-11-17T11:39:13.630Z,9.430374
2022-11-17T11:40:13.466Z,9.430348
2022-11-17T11:41:13.414Z,9.430369
2022-11-17T11:42:13.444Z,9.430360
2022-11-17T11:43:13.412Z,9.430358
2022-11-17T11:44:13.389Z,9.430356
2022-11-17T11:45:13.463Z,9.430327
2022-11-17T11:46:13.379Z,9.430334
2022-11-17T11:47:13.403Z,9.430301
2022-11-17T11:48:13.364Z,9.430307
2022-11-17T11:49:13.364Z,9.430309
2022-11-17T11:50:13.416Z,9.430343
2022-11-17T11:51:13.297Z,9.430396
2022-11-17T11:52:13.452Z,9.430427
2022-11-17T11:53:13.374Z,9.430305
2022-11-17T11:54:13.779Z,9.430294
2022-11-17T11:55:13.280Z,9.430313
2022-11-17T11:56:13.281Z,9.430408
2022-11-17T11:57:13.266Z,9.430430
2022-11-17T11:58:13.244Z,9.430374
2022-11-17T11:59:13.628Z,9.430381
2022-11-17T12:00:13.298Z,9.430345
2022-11-17T12:01:13.220Z,9.430364
2022-11-17T12:02:13.281Z,9.430358
2022-11-17T12:03:13.255Z,9.430333
2022-11-17T12:04:13.622Z,9.430314
2022-11-17T12:05:13.256Z,9.430299
2022-11-17T12:06:14.148Z,9.430376
2022-11-17T12:07:13.202Z,9.430406
2022-11-17T12:08:13.112Z,9.430346
2022-11-17T12:09:13.165Z,9.430373
2022-11-17T12:10:13.147Z,9.430415
2022-11-17T12:11:13.125Z,9.430386